Argusville, North Dakota
Current Conditions -  °F | °C
As of 10:53 AM on Sunday 23 Nov 2014 (Local Time) from KFAR Reporting Station
Overcast Overcast  
Wind Chill:   Ceiling: 4700
Heat Index:   Visibility: 10mi
Dew Point:   Wind: 9mph
Humidity: 73%   Direction: 260°W
Pressure: 29.44"   Gusts: NA
Location:  47.05°N, 96.93°W
Report Text: KFAR 231653Z 26008KT 10SM OVC047 07/02 A2944 RMK AO2 RAE00 SLP976 P0000 T00670022
Loading
Personal Weather Stations






























Interactive Weather Map New forecast layout! Learn more

10-Day Weather Forecast

Advertisements
Track Severe Weather on mobile